Time;durP1;ratioP1;P1;durP2;ratioP2;P2;SDS_P1;SDS_P2;PMS_P1;PMS_P2;Temp;Humidity;BMP_temperature;BMP_pressure;BME280_temperature;BME280_humidity;BME280_pressure;Samples;Min_cycle;Max_cycle;Signal;HPM_P1;HPM_P2
2023/07/15 00:01:36;;;;;;;5.90;2.97;;;;;;;22.35;53.69;100289.31;5114888;28;20483;-65
2023/07/15 00:04:11;;;;;;;7.07;2.88;;;;;;;22.36;53.71;100295.66;5097499;28;20373;-64
2023/07/15 00:06:40;;;;;;;7.97;3.20;;;;;;;22.35;53.69;100289.31;5119204;28;20111;-66
2023/07/15 00:09:08;;;;;;;12.48;2.90;;;;;;;22.35;53.38;100288.50;5045124;28;20044;-65
2023/07/15 00:11:38;;;;;;;5.95;2.78;;;;;;;22.35;53.28;100289.31;5108803;28;20047;-65
2023/07/15 00:14:18;;;;;;;8.38;2.95;;;;;;;22.35;52.94;100291.28;5097707;28;20063;-65
2023/07/15 00:16:46;;;;;;;9.32;3.00;;;;;;;22.36;52.93;100288.13;5097367;28;20242;-64
2023/07/15 00:19:15;;;;;;;7.90;3.00;;;;;;;22.36;52.75;100279.00;5114606;28;20063;-64
2023/07/15 00:21:43;;;;;;;10.02;3.30;;;;;;;22.33;52.69;100286.09;5090139;28;20454;-64
2023/07/15 00:24:10;;;;;;;6.90;3.13;;;;;;;22.32;52.76;100279.75;5075824;28;20443;-64
2023/07/15 00:26:40;;;;;;;6.90;3.03;;;;;;;22.32;53.15;100278.91;5058443;28;20380;-64
2023/07/15 00:29:08;;;;;;;9.13;3.05;;;;;;;22.31;53.11;100277.31;5093971;28;20044;-65
2023/07/15 00:31:36;;;;;;;7.63;3.10;;;;;;;22.30;52.77;100272.94;5093865;28;20051;-66
2023/07/15 00:34:05;;;;;;;7.20;3.10;;;;;;;22.30;52.79;100275.72;5102577;28;20497;-65
2023/07/15 00:36:33;;;;;;;7.20;3.22;;;;;;;22.29;52.93;100276.88;5113968;28;20051;-65
2023/07/15 00:39:03;;;;;;;5.32;2.78;;;;;;;22.29;52.28;100274.09;5096487;28;20047;-64
2023/07/15 00:41:33;;;;;;;7.70;2.83;;;;;;;22.30;52.52;100275.72;5059972;28;20052;-64
2023/07/15 00:44:06;;;;;;;5.60;3.00;;;;;;;22.33;53.00;100288.84;5059680;28;20051;-64
2023/07/15 00:46:51;;;;;;;10.95;3.03;;;;;;;22.35;51.53;100277.41;5096089;28;20043;-65
2023/07/15 00:49:21;;;;;;;7.45;2.55;;;;;;;22.36;51.18;100277.03;5114171;28;20050;-64
2023/07/15 00:52:00;;;;;;;6.40;3.00;;;;;;;22.39;50.83;100281.06;5114104;28;20048;-65
2023/07/15 00:54:34;;;;;;;5.95;2.60;;;;;;;22.40;51.49;100286.25;5060387;28;20043;-65
2023/07/15 00:57:02;;;;;;;9.07;2.95;;;;;;;22.44;52.44;100291.88;5079126;28;20098;-65
2023/07/15 00:59:31;;;;;;;8.90;2.80;;;;;;;22.43;51.29;100285.53;5079400;28;20048;-65
2023/07/15 01:02:00;;;;;;;12.48;3.28;;;;;;;22.44;50.93;100289.94;5054418;28;20056;-65
2023/07/15 01:04:28;;;;;;;6.07;2.90;;;;;;;22.48;53.42;100287.22;5048979;28;20044;-66
2023/07/15 01:06:58;;;;;;;4.97;2.50;;;;;;;22.52;54.10;100294.47;5039894;28;20481;-64
2023/07/15 01:09:27;;;;;;;5.35;2.50;;;;;;;22.51;53.46;100295.63;5056143;28;20105;-64
2023/07/15 01:11:55;;;;;;;4.35;2.60;;;;;;;22.50;53.51;100296.78;5064867;28;20453;-64
2023/07/15 01:14:23;;;;;;;7.28;2.70;;;;;;;22.48;51.70;100296.34;5093635;28;20044;-64
2023/07/15 01:16:51;;;;;;;5.35;2.60;;;;;;;22.46;51.31;100301.44;5074511;28;20044;-66
2023/07/15 01:19:18;;;;;;;8.35;2.60;;;;;;;22.44;51.78;100295.47;5111754;28;20060;-65
2023/07/15 01:21:51;;;;;;;4.65;2.67;;;;;;;22.44;51.52;100303.81;5097395;28;20044;-65
2023/07/15 01:24:21;;;;;;;4.60;2.58;;;;;;;22.45;53.35;100294.28;5117507;28;20051;-63
2023/07/15 01:26:57;;;;;;;5.88;3.08;;;;;;;22.44;51.85;100298.25;5099319;28;20141;-65
2023/07/15 01:29:26;;;;;;;5.85;2.97;;;;;;;22.41;51.71;100301.72;5099016;28;20051;-62
2023/07/15 01:31:54;;;;;;;6.35;2.90;;;;;;;22.38;51.71;100298.88;5100134;28;20412;-65
2023/07/15 01:34:21;;;;;;;5.85;2.80;;;;;;;22.35;52.45;100294.88;5098894;28;20050;-64
2023/07/15 01:36:50;;;;;;;5.25;2.75;;;;;;;22.35;53.13;100294.06;5099676;28;20043;-64
2023/07/15 01:39:18;;;;;;;6.03;2.72;;;;;;;22.31;52.30;100289.22;5082627;28;20043;-64
2023/07/15 01:41:45;;;;;;;6.70;3.15;;;;;;;22.26;51.88;100291.47;5065808;28;20043;-64
2023/07/15 01:44:14;;;;;;;6.80;2.92;;;;;;;22.21;52.00;100283.41;5115169;28;20051;-64
2023/07/15 01:46:43;;;;;;;8.82;3.40;;;;;;;22.20;52.05;100290.09;5098859;28;20100;-63
2023/07/15 01:49:11;;;;;;;8.68;2.90;;;;;;;22.17;52.26;100294.38;5117485;28;20044;-64
2023/07/15 01:51:40;;;;;;;9.20;2.92;;;;;;;22.18;52.80;100289.66;5097585;28;20047;-64
2023/07/15 01:54:08;;;;;;;7.05;2.67;;;;;;;22.16;52.55;100292.78;5116741;28;20467;-64
2023/07/15 01:56:36;;;;;;;6.43;2.60;;;;;;;22.16;53.41;100300.31;5115209;28;20123;-64
2023/07/15 01:59:04;;;;;;;5.90;2.72;;;;;;;22.16;53.88;100300.31;5082201;28;20403;-66
2023/07/15 02:01:32;;;;;;;5.57;2.55;;;;;;;22.15;54.72;100305.03;5098876;28;20044;-65
2023/07/15 02:04:00;;;;;;;4.93;2.75;;;;;;;22.17;55.47;100304.69;5098131;28;20043;-64
2023/07/15 02:06:28;;;;;;;7.35;2.80;;;;;;;22.18;55.52;100295.22;5098923;28;20048;-65
2023/07/15 02:08:56;;;;;;;6.15;2.95;;;;;;;22.18;55.15;100295.22;5096652;28;20039;-63
2023/07/15 02:11:26;;;;;;;6.88;2.65;;;;;;;22.10;53.77;100300.59;5085657;28;20052;-65
2023/07/15 02:13:54;;;;;;;9.02;2.75;;;;;;;22.07;54.43;100306.84;5115552;28;20414;-64
2023/07/15 02:16:22;;;;;;;4.95;2.65;;;;;;;22.08;55.64;100302.09;5081504;28;20047;-64
2023/07/15 02:18:50;;;;;;;5.35;2.67;;;;;;;22.05;55.33;100303.63;5098417;28;20051;-64
2023/07/15 02:21:19;;;;;;;7.78;3.20;;;;;;;22.08;55.63;100316.78;5115120;28;20092;-63
2023/07/15 02:23:47;;;;;;;5.03;2.72;;;;;;;22.05;55.60;100313.91;5098016;28;20051;-66
2023/07/15 02:26:15;;;;;;;4.68;2.25;;;;;;;22.06;55.92;100310.00;5098691;28;20044;-63
2023/07/15 02:28:43;;;;;;;5.68;2.38;;;;;;;22.02;55.17;100307.13;5099037;28;20058;-64
2023/07/15 02:31:11;;;;;;;4.40;2.40;;;;;;;21.96;55.19;100316.88;5098556;28;20074;-64
2023/07/15 02:33:39;;;;;;;5.95;2.88;;;;;;;21.91;55.38;100319.91;5115306;28;20377;-63
2023/07/15 02:36:07;;;;;;;6.88;2.97;;;;;;;21.86;54.94;100322.94;5097813;28;20051;-64
2023/07/15 02:38:35;;;;;;;6.00;2.53;;;;;;;21.84;55.20;100325.25;5098070;28;20047;-64
2023/07/15 02:41:03;;;;;;;8.05;2.80;;;;;;;21.85;55.82;100316.59;5116766;28;20044;-65
2023/07/15 02:43:31;;;;;;;5.45;2.50;;;;;;;21.85;55.98;100310.25;5117062;28;20047;-65
2023/07/15 02:45:59;;;;;;;5.57;2.50;;;;;;;21.85;55.91;100327.69;5097216;28;20055;-64
2023/07/15 02:48:27;;;;;;;4.03;2.53;;;;;;;21.83;55.82;100316.13;5117222;28;20048;-65
2023/07/15 02:50:56;;;;;;;8.65;3.00;;;;;;;21.83;55.51;100318.13;5099302;28;20071;-65
2023/07/15 02:53:24;;;;;;;4.30;2.55;;;;;;;21.79;55.96;100317.22;5118292;28;20048;-61
2023/07/15 02:55:52;;;;;;;5.22;2.80;;;;;;;21.76;56.16;100317.94;5097476;28;20067;-61
2023/07/15 02:58:19;;;;;;;7.00;2.47;;;;;;;21.74;56.32;100309.97;5089153;28;20448;-63
2023/07/15 03:00:50;;;;;;;5.43;2.95;;;;;;;21.73;56.09;100308.34;5062948;28;20064;-66
2023/07/15 03:03:19;;;;;;;5.30;2.55;;;;;;;21.69;56.29;100313.00;5078909;28;20047;-65
2023/07/15 03:05:47;;;;;;;7.50;2.35;;;;;;;21.67;56.91;100307.81;5130496;28;20141;-61
2023/07/15 03:08:16;;;;;;;7.35;2.67;;;;;;;21.66;56.43;100308.97;5096442;28;20070;-60
2023/07/15 03:10:44;;;;;;;5.93;3.00;;;;;;;21.59;56.26;100303.22;5124125;28;20146;-64
2023/07/15 03:13:12;;;;;;;6.03;2.90;;;;;;;21.54;56.66;100311.81;5102272;28;20486;-64
2023/07/15 03:15:42;;;;;;;6.55;2.88;;;;;;;21.51;56.83;100318.06;5104067;28;20117;-64
2023/07/15 03:18:10;;;;;;;6.22;2.90;;;;;;;21.47;56.97;100315.19;5098253;28;20062;-65
2023/07/15 03:20:39;;;;;;;5.35;2.97;;;;;;;21.44;56.78;100309.56;5090600;28;20095;-65
2023/07/15 03:23:07;;;;;;;5.75;2.92;;;;;;;21.45;57.32;100319.47;5090699;28;20107;-66
2023/07/15 03:25:36;;;;;;;6.70;3.10;;;;;;;21.44;57.33;100309.56;5100512;28;20123;-65
2023/07/15 03:28:04;;;;;;;5.28;2.67;;;;;;;21.39;57.55;100312.56;5116082;28;20040;-65
2023/07/15 03:30:31;;;;;;;5.70;2.90;;;;;;;21.36;57.52;100311.31;5081032;28;20121;-64
2023/07/15 03:32:59;;;;;;;11.05;3.03;;;;;;;21.33;57.94;100311.19;5115042;28;20040;-64
2023/07/15 03:35:28;;;;;;;7.47;3.00;;;;;;;21.30;58.25;100314.69;5095989;28;20063;-64
2023/07/15 03:37:56;;;;;;;5.13;2.70;;;;;;;21.27;58.44;100319.75;5097386;28;20043;-64
2023/07/15 03:40:24;;;;;;;4.47;2.67;;;;;;;21.27;58.43;100319.75;5114658;28;20048;-65
2023/07/15 03:42:53;;;;;;;8.55;2.92;;;;;;;21.25;58.62;100315.75;5096872;28;20039;-64
2023/07/15 03:45:21;;;;;;;9.70;2.92;;;;;;;21.23;58.91;100318.03;5114215;28;20437;-66
2023/07/15 03:47:49;;;;;;;5.22;2.83;;;;;;;21.21;59.12;100321.19;5114290;28;20100;-64
2023/07/15 03:50:17;;;;;;;9.65;3.10;;;;;;;21.21;59.24;100315.66;5115234;28;20051;-64
2023/07/15 03:52:45;;;;;;;5.10;2.63;;;;;;;21.19;59.26;100317.97;5096807;28;20048;-66
2023/07/15 03:55:12;;;;;;;8.15;3.13;;;;;;;21.18;59.59;100316.34;5110423;28;20054;-64
2023/07/15 03:57:40;;;;;;;7.05;2.63;;;;;;;21.19;59.74;100322.66;5114684;28;20092;-65
2023/07/15 04:00:17;;;;;;;5.90;2.67;;;;;;;21.21;59.73;100318.41;5080589;28;20402;-65
2023/07/15 04:02:48;;;;;;;6.82;2.92;;;;;;;21.15;59.96;100311.50;5094347;28;20062;-65
2023/07/15 04:05:16;;;;;;;7.35;3.30;;;;;;;21.07;60.28;100315.25;5079389;28;20044;-65
2023/07/15 04:07:44;;;;;;;6.68;2.65;;;;;;;21.00;60.43;100306.72;5097653;28;20040;-64
2023/07/15 04:10:12;;;;;;;6.22;3.00;;;;;;;20.97;60.92;100316.53;5112554;28;20466;-65
2023/07/15 04:12:40;;;;;;;8.30;2.78;;;;;;;20.96;61.06;100314.13;5093243;28;20044;-65
2023/07/15 04:15:08;;;;;;;5.35;2.80;;;;;;;20.94;61.23;100314.44;5094750;28;20051;-65
2023/07/15 04:17:36;;;;;;;7.03;2.97;;;;;;;20.94;61.53;100316.41;5114062;28;20070;-64
2023/07/15 04:20:10;;;;;;;7.05;2.80;;;;;;;20.95;61.72;100312.47;5096276;28;20054;-65
2023/07/15 04:22:38;;;;;;;5.80;2.88;;;;;;;20.93;61.85;100315.63;5094304;28;20062;-64
2023/07/15 04:25:06;;;;;;;6.43;2.90;;;;;;;20.94;62.08;100313.66;5114937;28;20050;-65
2023/07/15 04:27:34;;;;;;;5.53;2.88;;;;;;;20.93;62.14;100309.28;5095749;28;20047;-64
2023/07/15 04:30:03;;;;;;;6.70;2.88;;;;;;;20.90;62.42;100316.34;5114002;28;20051;-65
2023/07/15 04:32:31;;;;;;;9.18;3.28;;;;;;;20.92;62.33;100311.22;5114429;28;20043;-65
2023/07/15 04:35:00;;;;;;;10.88;3.50;;;;;;;20.93;61.86;100314.81;5113092;28;20036;-64
2023/07/15 04:37:29;;;;;;;7.32;3.00;;;;;;;20.98;61.78;100317.34;5094128;28;20377;-65
2023/07/15 04:39:57;;;;;;;7.03;3.17;;;;;;;21.02;61.64;100312.69;5094104;28;20125;-65
2023/07/15 04:42:26;;;;;;;10.15;3.33;;;;;;;21.05;61.44;100323.09;5112364;28;20044;-65
2023/07/15 04:44:54;;;;;;;8.23;3.53;;;;;;;21.05;61.48;100326.66;5095301;28;20561;-65
2023/07/15 04:47:22;;;;;;;6.63;3.10;;;;;;;21.08;61.46;100333.47;5094044;28;20105;-64
2023/07/15 04:49:49;;;;;;;5.68;2.97;;;;;;;21.11;61.41;100334.72;5095393;28;20497;-66
2023/07/15 04:52:17;;;;;;;9.98;3.38;;;;;;;21.13;61.33;100335.97;5109829;28;20483;-65
2023/07/15 04:54:45;;;;;;;8.60;3.55;;;;;;;21.16;61.40;100343.56;5114165;28;20048;-64
2023/07/15 04:57:13;;;;;;;9.00;3.30;;;;;;;21.18;61.36;100346.81;5113705;28;20044;-64
2023/07/15 04:59:41;;;;;;;9.63;3.38;;;;;;;21.18;61.60;100341.28;5083036;28;20381;-65
2023/07/15 05:02:09;;;;;;;6.80;3.38;;;;;;;21.16;62.04;100340.81;5118077;28;20046;-65
2023/07/15 05:04:37;;;;;;;7.70;3.38;;;;;;;21.17;62.48;100336.91;5100611;28;20066;-64
2023/07/15 05:07:05;;;;;;;8.18;3.30;;;;;;;21.17;62.78;100331.34;5117082;28;20059;-65
2023/07/15 05:09:33;;;;;;;9.73;3.20;;;;;;;21.19;62.82;100329.03;5099837;28;20048;-64
2023/07/15 05:12:01;;;;;;;7.28;3.40;;;;;;;21.21;63.02;100329.50;5118296;28;20065;-65
2023/07/15 05:14:29;;;;;;;6.63;3.03;;;;;;;21.23;63.22;100335.47;5082948;28;20052;-65
2023/07/15 05:16:58;;;;;;;8.55;3.10;;;;;;;21.25;63.36;100333.16;5079294;28;20087;-66
2023/07/15 05:19:26;;;;;;;11.65;3.15;;;;;;;21.28;63.32;100323.34;5099210;28;20440;-66
2023/07/15 05:21:54;;;;;;;10.15;3.75;;;;;;;21.27;63.30;100318.97;5117426;28;20047;-65
2023/07/15 05:24:22;;;;;;;7.63;3.42;;;;;;;21.26;63.45;100320.94;5105450;28;20044;-66
2023/07/15 05:26:50;;;;;;;11.85;3.70;;;;;;;21.27;63.40;100330.06;5096689;28;20036;-64
2023/07/15 05:29:17;;;;;;;9.18;3.20;;;;;;;21.28;63.43;100334.41;5107150;28;20108;-64
2023/07/15 05:31:45;;;;;;;8.65;3.80;;;;;;;21.31;63.65;100332.91;5116540;28;20096;-64
2023/07/15 05:34:13;;;;;;;8.90;3.70;;;;;;;21.32;63.96;100326.22;5117733;28;20453;-64
2023/07/15 05:36:41;;;;;;;8.05;3.33;;;;;;;21.32;63.77;100327.03;5117395;28;20039;-65
2023/07/15 05:39:09;;;;;;;5.78;3.00;;;;;;;21.35;63.61;100331.06;5095533;28;20491;-65
2023/07/15 05:41:37;;;;;;;7.10;3.20;;;;;;;21.36;63.57;100338.19;5116821;28;20430;-65
2023/07/15 05:44:05;;;;;;;9.23;3.40;;;;;;;21.38;63.61;100335.88;4409557;28;10000617;-65
2023/07/15 05:46:33;;;;;;;7.70;3.00;;;;;;;21.41;63.72;100340.78;5115402;28;20499;-65
2023/07/15 05:49:03;;;;;;;8.25;3.20;;;;;;;21.46;63.75;100338.53;5112500;28;20084;-63
2023/07/15 05:51:32;;;;;;;5.18;2.75;;;;;;;21.48;63.78;100343.75;5097038;28;20063;-65
2023/07/15 05:54:00;;;;;;;7.00;2.92;;;;;;;21.50;63.91;100349.72;5114789;28;20040;-64
2023/07/15 05:56:28;;;;;;;7.13;3.22;;;;;;;21.52;64.37;100347.41;5113952;28;20048;-65
2023/07/15 05:58:55;;;;;;;8.70;3.38;;;;;;;21.56;64.38;100348.31;5113544;28;20116;-65
2023/07/15 06:01:23;;;;;;;6.50;2.67;;;;;;;21.59;64.26;100353.13;5113980;28;20388;-65
2023/07/15 06:03:51;;;;;;;7.60;3.50;;;;;;;21.65;64.37;100356.47;5113114;28;20055;-66
2023/07/15 06:06:19;;;;;;;8.32;2.90;;;;;;;21.69;64.57;100349.88;5112569;28;20123;-65
2023/07/15 06:08:53;;;;;;;7.10;3.55;;;;;;;21.74;64.68;100347.97;5110844;28;20044;-64
2023/07/15 06:11:21;;;;;;;8.15;3.08;;;;;;;21.76;64.56;100352.00;5112199;28;20423;-66
2023/07/15 06:13:48;;;;;;;6.35;3.10;;;;;;;21.77;64.88;100342.53;5113767;28;20364;-65
2023/07/15 06:16:16;;;;;;;4.55;2.92;;;;;;;21.77;65.00;100333.38;5112952;28;20047;-65
2023/07/15 06:18:44;;;;;;;5.60;2.95;;;;;;;21.81;65.16;100337.88;5094289;28;20064;-65
2023/07/15 06:21:12;;;;;;;10.73;3.05;;;;;;;21.82;65.79;100333.97;5115829;28;20118;-65
2023/07/15 06:23:40;;;;;;;6.03;2.80;;;;;;;21.85;65.50;100343.53;5118618;28;20044;-64
2023/07/15 06:26:08;;;;;;;6.88;2.58;;;;;;;21.90;65.88;100351.59;5100229;28;20504;-66
2023/07/15 06:28:36;;;;;;;6.22;2.95;;;;;;;21.95;66.62;100354.09;5101858;28;20048;-65
2023/07/15 06:31:06;;;;;;;6.47;2.80;;;;;;;21.95;66.99;100347.75;5120207;28;20047;-64
2023/07/15 06:33:36;;;;;;;8.30;3.28;;;;;;;21.98;66.41;100358.91;5099947;28;20048;-64
2023/07/15 06:36:04;;;;;;;5.63;2.78;;;;;;;21.99;65.94;100360.53;5091278;28;20044;-66
2023/07/15 06:38:32;;;;;;;8.45;2.92;;;;;;;21.98;65.90;100361.69;5099689;28;20045;-65
2023/07/15 06:41:00;;;;;;;5.38;2.78;;;;;;;21.98;65.18;100358.91;5115381;28;20400;-64
2023/07/15 06:43:28;;;;;;;9.07;3.28;;;;;;;21.99;64.87;100354.19;5116875;28;20047;-64
2023/07/15 06:45:56;;;;;;;11.27;3.80;;;;;;;22.02;65.30;100354.28;5116329;28;20507;-64
2023/07/15 06:48:24;;;;;;;13.82;3.53;;;;;;;22.04;65.68;100351.97;5098616;28;20059;-64
2023/07/15 06:50:51;;;;;;;7.00;2.70;;;;;;;22.07;65.84;100350.44;5116800;28;20096;-64
2023/07/15 06:53:19;;;;;;;8.73;3.13;;;;;;;22.10;65.83;100356.09;5097845;28;20051;-65
2023/07/15 06:55:47;;;;;;;11.30;3.22;;;;;;;22.16;66.51;100358.59;5116538;28;20048;-64
2023/07/15 06:58:15;;;;;;;14.27;3.25;;;;;;;22.18;67.39;100354.28;5116878;28;20399;-65
2023/07/15 07:00:42;;;;;;;10.63;2.80;;;;;;;22.22;68.30;100354.41;5117571;28;20052;-63
2023/07/15 07:03:10;;;;;;;11.13;3.83;;;;;;;22.28;69.46;100344.66;5116830;28;20044;-63
2023/07/15 07:05:40;;;;;;;15.80;4.82;;;;;;;22.34;66.00;100345.97;5115668;28;20411;-64
2023/07/15 07:08:09;;;;;;;18.67;5.07;;;;;;;22.34;67.11;100348.75;5117202;28;20528;-65
2023/07/15 07:10:36;;;;;;;11.68;3.53;;;;;;;22.33;70.07;100341.59;5099203;28;20039;-66
2023/07/15 07:13:04;;;;;;;4.88;2.58;;;;;;;22.31;74.47;100355.03;5112034;28;20039;-64
2023/07/15 07:15:32;;;;;;;24.55;6.15;;;;;;;22.31;70.84;100352.25;5103085;28;20044;-65
2023/07/15 07:18:00;;;;;;;7.95;2.95;;;;;;;22.31;74.34;100343.91;5094765;28;20056;-64
2023/07/15 07:20:28;;;;;;;6.63;2.78;;;;;;;22.30;75.40;100342.31;5098208;28;20044;-60
2023/07/15 07:22:57;;;;;;;4.63;2.42;;;;;;;22.29;76.18;100351.81;5115714;28;20085;-64
2023/07/15 07:25:25;;;;;;;4.72;2.33;;;;;;;22.30;76.73;100350.66;5112146;28;20193;-61
2023/07/15 07:27:52;;;;;;;5.93;2.40;;;;;;;22.33;76.80;100352.69;5105302;28;20044;-65
2023/07/15 07:30:20;;;;;;;6.38;2.33;;;;;;;22.38;76.98;100359.94;5100268;28;20047;-64
2023/07/15 07:32:48;;;;;;;9.10;2.63;;;;;;;22.40;77.13;100358.44;5103593;28;20047;-58
2023/07/15 07:35:17;;;;;;;5.15;2.17;;;;;;;22.43;77.27;100359.69;5129044;28;20067;-59
2023/07/15 07:37:44;;;;;;;6.43;2.80;;;;;;;22.45;77.53;100358.16;5103350;28;20130;-64
2023/07/15 07:40:13;;;;;;;7.13;2.50;;;;;;;22.48;77.49;100362.97;5115248;28;20073;-64
2023/07/15 07:42:41;;;;;;;6.60;2.30;;;;;;;22.49;76.59;100363.81;5096529;28;20421;-64
2023/07/15 07:45:13;;;;;;;4.75;2.50;;;;;;;22.51;76.30;100372.56;5111607;28;20449;-65
2023/07/15 07:47:41;;;;;;;7.85;2.40;;;;;;;22.53;76.39;100373.81;5100010;28;20468;-65
2023/07/15 07:50:09;;;;;;;7.15;2.30;;;;;;;22.58;76.54;100374.69;5093678;28;20089;-64
2023/07/15 07:52:37;;;;;;;7.20;2.70;;;;;;;22.63;76.40;100369.66;5108054;28;20044;-65
2023/07/15 07:55:05;;;;;;;6.68;2.28;;;;;;;22.68;75.41;100368.59;5112315;28;20052;-65
2023/07/15 07:57:33;;;;;;;4.88;2.17;;;;;;;22.69;75.04;100361.88;5114819;28;20108;-64
2023/07/15 08:00:01;;;;;;;6.30;2.40;;;;;;;22.70;74.95;100355.94;5106529;28;20084;-65
2023/07/15 08:02:32;;;;;;;8.07;2.60;;;;;;;22.73;75.20;100354.44;5108060;28;20054;-65
2023/07/15 08:05:00;;;;;;;4.05;2.35;;;;;;;22.79;74.99;100358.53;5112231;28;20096;-65
2023/07/15 08:07:28;;;;;;;6.82;2.70;;;;;;;22.82;74.39;100362.56;5112561;28;20050;-64
2023/07/15 08:09:55;;;;;;;4.88;2.55;;;;;;;22.84;74.47;100354.66;5114422;28;20054;-65
2023/07/15 08:12:23;;;;;;;7.28;2.50;;;;;;;22.87;74.65;100343.63;5114845;28;20395;-66
2023/07/15 08:14:51;;;;;;;7.75;2.83;;;;;;;22.92;74.87;100357.25;5110798;28;20043;-65
2023/07/15 08:17:19;;;;;;;5.50;2.30;;;;;;;22.93;75.00;100367.19;5113378;28;20649;-66
2023/07/15 08:19:47;;;;;;;4.68;2.63;;;;;;;22.95;75.51;100366.84;5114142;28;20057;-65
2023/07/15 08:22:15;;;;;;;6.90;2.45;;;;;;;22.97;75.97;100381.97;5112886;28;20084;-65
2023/07/15 08:24:43;;;;;;;5.18;2.60;;;;;;;23.00;76.55;100374.13;5113304;28;20077;-65
2023/07/15 08:27:11;;;;;;;4.18;2.40;;;;;;;23.02;76.17;100368.97;5112895;28;20055;-66
2023/07/15 08:29:39;;;;;;;5.57;2.30;;;;;;;23.06;77.11;100367.09;5130085;27;20043;-64
2023/07/15 08:32:07;;;;;;;3.40;2.22;;;;;;;23.14;76.61;100374.44;5113322;28;20069;-65
2023/07/15 08:34:35;;;;;;;4.93;2.63;;;;;;;23.18;76.93;100380.84;5096373;28;20043;-66
2023/07/15 08:37:03;;;;;;;5.65;2.40;;;;;;;23.19;76.96;100376.91;5112834;28;20046;-65
2023/07/15 08:39:31;;;;;;;6.80;2.45;;;;;;;23.22;76.98;100392.06;5112583;28;20044;-65
2023/07/15 08:42:01;;;;;;;3.83;2.28;;;;;;;23.22;76.91;100381.72;5098155;28;20098;-65
2023/07/15 08:44:29;;;;;;;5.53;2.47;;;;;;;23.20;77.54;100388.84;5092552;28;20647;-65
2023/07/15 08:46:58;;;;;;;6.25;2.58;;;;;;;23.17;78.27;100390.38;5111164;28;20119;-65
2023/07/15 08:49:28;;;;;;;7.00;2.30;;;;;;;23.17;78.15;100384.81;5095130;28;20040;-65
2023/07/15 08:51:57;;;;;;;4.80;2.60;;;;;;;23.16;78.09;100389.56;5112721;28;20062;-64
2023/07/15 08:54:25;;;;;;;4.25;2.20;;;;;;;23.15;78.12;100398.25;5113050;28;20037;-65
2023/07/15 08:56:53;;;;;;;4.38;2.08;;;;;;;23.15;78.65;100396.28;5104601;28;20055;-65
2023/07/15 08:59:21;;;;;;;8.25;2.55;;;;;;;23.16;78.62;100405.41;5112657;28;20044;-64
2023/07/15 09:01:49;;;;;;;5.72;2.63;;;;;;;23.16;77.91;100410.97;5110380;28;20121;-64
2023/07/15 09:04:16;;;;;;;6.45;2.60;;;;;;;23.16;76.64;100406.25;5100940;28;20388;-65
2023/07/15 09:06:45;;;;;;;14.63;3.72;;;;;;;23.17;76.62;100409.81;5111726;28;20074;-66
2023/07/15 09:09:13;;;;;;;12.43;3.70;;;;;;;23.18;76.76;100422.53;5114365;28;20076;-63
2023/07/15 09:11:42;;;;;;;6.63;2.72;;;;;;;23.21;76.93;100429.34;5114746;28;20499;-65
2023/07/15 09:14:17;;;;;;;8.60;2.63;;;;;;;23.22;77.21;100437.31;5108757;28;20056;-66
2023/07/15 09:16:45;;;;;;;8.32;3.28;;;;;;;23.22;77.47;100448.44;5114247;28;20047;-64
2023/07/15 09:19:13;;;;;;;6.63;2.80;;;;;;;23.20;77.50;100445.22;5094525;28;20198;-65
2023/07/15 09:21:55;;;;;;;7.32;2.60;;;;;;;23.15;77.75;100448.28;5096608;28;20117;-64
2023/07/15 09:24:23;;;;;;;7.38;2.90;;;;;;;23.10;75.54;100445.78;5079613;28;20409;-65
2023/07/15 09:26:56;;;;;;;8.68;3.63;;;;;;;23.08;75.07;100440.59;5098722;28;20047;-64
2023/07/15 09:29:24;;;;;;;9.40;4.03;;;;;;;23.06;74.74;100440.13;5115011;28;20040;-66
2023/07/15 09:31:52;;;;;;;8.50;3.33;;;;;;;23.07;74.87;100429.84;5097069;28;20044;-66
2023/07/15 09:34:24;;;;;;;9.02;2.90;;;;;;;23.09;74.06;100427.50;5090907;28;20055;-67
2023/07/15 09:36:53;;;;;;;5.47;2.70;;;;;;;23.13;73.04;100422.81;5112397;28;20055;-65
2023/07/15 09:39:22;;;;;;;8.25;2.70;;;;;;;23.18;72.30;100433.66;5116559;28;20142;-66
2023/07/15 09:42:11;;;;;;;4.40;2.53;;;;;;;23.21;72.50;100421.84;5113601;28;20506;-68
2023/07/15 09:44:40;;;;;;;7.10;2.72;;;;;;;23.26;72.28;100427.09;5100080;28;20096;-66
2023/07/15 09:47:08;;;;;;;7.70;2.65;;;;;;;23.28;72.03;100441.44;5116386;28;20452;-65
2023/07/15 09:49:37;;;;;;;5.65;2.58;;;;;;;23.30;72.04;100443.84;5109619;28;20476;-66
2023/07/15 09:52:06;;;;;;;8.07;2.85;;;;;;;23.31;71.36;100439.91;5095573;28;20051;-66
2023/07/15 09:54:34;;;;;;;8.77;3.03;;;;;;;23.30;69.88;100439.09;5096978;28;20048;-66
2023/07/15 09:57:22;;;;;;;6.28;2.97;;;;;;;23.29;69.51;100447.81;5086969;28;20048;-65
2023/07/15 09:59:53;;;;;;;6.90;2.78;;;;;;;23.29;69.39;100453.38;5084802;28;20051;-67
2023/07/15 10:02:42;;;;;;;7.05;2.75;;;;;;;23.30;67.73;100443.84;5116324;28;20043;-67
2023/07/15 10:05:13;;;;;;;6.35;2.65;;;;;;;23.30;70.08;100469.66;5082041;28;20077;-67
2023/07/15 10:07:41;;;;;;;6.30;2.90;;;;;;;23.32;71.77;100474.88;5099552;28;20043;-66
2023/07/15 10:10:09;;;;;;;8.07;2.78;;;;;;;23.32;72.53;100470.09;5115018;28;20047;-65
2023/07/15 10:12:38;;;;;;;6.43;2.95;;;;;;;23.31;71.34;100478.84;5116643;28;20051;-66
2023/07/15 10:15:07;;;;;;;5.78;2.72;;;;;;;23.28;70.49;100469.25;5115428;28;20072;-66
2023/07/15 10:17:38;;;;;;;6.03;2.70;;;;;;;23.26;73.04;100477.13;5115434;28;20043;-66
2023/07/15 10:20:11;;;;;;;5.40;2.80;;;;;;;23.24;74.54;100468.34;5116001;28;20063;-66
2023/07/15 10:22:40;;;;;;;7.45;2.40;;;;;;;23.23;75.60;100465.94;5098022;28;20047;-65
2023/07/15 10:25:10;;;;;;;6.35;2.50;;;;;;;23.22;77.99;100465.13;5115616;28;20047;-67
2023/07/15 10:27:38;;;;;;;11.57;3.03;;;;;;;23.17;72.28;100457.06;5089670;28;20104;-66
2023/07/15 10:30:26;;;;;;;6.43;2.60;;;;;;;23.13;78.20;100445.06;5114911;28;20100;-66
2023/07/15 10:33:01;;;;;;;4.40;2.63;;;;;;;23.08;74.71;100423.13;5114439;28;20055;-65
2023/07/15 10:35:33;;;;;;;5.78;2.20;;;;;;;23.03;78.44;100437.28;5116296;28;20069;-66
2023/07/15 10:38:07;;;;;;;6.30;2.80;;;;;;;22.99;78.09;100436.41;5116125;28;20054;-65
2023/07/15 10:40:47;;;;;;;8.02;2.70;;;;;;;22.96;78.35;100435.13;5114867;28;20072;-66
2023/07/15 10:43:21;;;;;;;7.70;2.72;;;;;;;22.94;77.06;100441.03;5113911;28;20046;-64
2023/07/15 10:45:55;;;;;;;6.88;2.60;;;;;;;22.97;77.03;100443.09;5116339;28;20081;-65
2023/07/15 10:48:23;;;;;;;8.13;2.70;;;;;;;23.00;78.20;100435.25;5114807;28;20513;-65
2023/07/15 10:50:55;;;;;;;5.43;2.83;;;;;;;23.02;75.94;100427.31;5116655;28;20047;-66
2023/07/15 10:53:26;;;;;;;5.55;2.72;;;;;;;23.06;76.27;100439.34;5096980;28;20055;-67
2023/07/15 10:56:04;;;;;;;4.88;2.80;;;;;;;23.08;73.81;100450.91;5097945;28;20039;-65
2023/07/15 10:58:34;;;;;;;5.07;2.83;;;;;;;23.10;77.01;100437.44;5116440;28;20406;-66
2023/07/15 11:01:09;;;;;;;8.68;3.38;;;;;;;23.10;77.08;100449.38;5116076;28;20040;-66
2023/07/15 11:03:38;;;;;;;5.70;2.80;;;;;;;23.12;78.20;100449.03;5114815;28;20116;-66
2023/07/15 11:06:06;;;;;;;5.57;2.45;;;;;;;23.13;76.91;100450.63;5114533;28;20040;-66
2023/07/15 11:08:38;;;;;;;6.20;2.60;;;;;;;23.15;77.41;100464.97;5118422;28;20069;-66
2023/07/15 11:11:10;;;;;;;5.00;2.72;;;;;;;23.15;75.41;100460.19;5083462;28;20402;-65
2023/07/15 11:13:40;;;;;;;5.68;2.42;;;;;;;23.16;76.65;100463.78;5101115;28;20062;-65
2023/07/15 11:16:08;;;;;;;4.68;2.70;;;;;;;23.16;76.67;100459.06;5112719;28;20051;-67
2023/07/15 11:18:36;;;;;;;5.70;2.55;;;;;;;23.15;77.41;100462.97;5116769;28;20069;-66
2023/07/15 11:21:05;;;;;;;6.90;2.90;;;;;;;23.15;77.57;100449.09;5112038;28;20039;-67
2023/07/15 11:23:33;;;;;;;5.25;2.50;;;;;;;23.15;77.46;100442.72;5079903;28;20059;-67
2023/07/15 11:26:10;;;;;;;11.98;2.60;;;;;;;23.20;77.44;100448.00;5115176;28;20496;-67
2023/07/15 11:28:51;;;;;;;15.05;5.15;;;;;;;23.23;74.28;100438.94;5114363;28;20101;-66
2023/07/15 11:31:22;;;;;;;10.13;3.50;;;;;;;23.27;74.84;100434.25;5097623;28;20043;-66
2023/07/15 11:33:56;;;;;;;23.92;7.20;;;;;;;23.28;73.88;100424.75;5096899;28;20040;-65